EPWR/WRO METAR and TAF weather

Enter ICAO airport designator
Station Type Date Time Source
EPWR METAR 2021/03/01 23:00 UTC NOAA

EPWR 012300Z 13003KT 0100 R29/0450U FZFG NSC M01/M01 Q1035


Station Type Date Time Source
EPWR Decoded METAR 2021/03/01 23:00 UTC NOAA

Wroclaw Ii, Poland (EPWR) 51-06N 016-53E 121M
Mar 01, 2021 - 06:00 PM EST / 2021.03.01 2300 UTC
Wind: from the SE (130 degrees) at 3 MPH (3 KT):0
Visibility: less than 1 mile:0
Weather: freezing fog
Temperature: 30 F (-1 C)
Dew Point: 30 F (-1 C)
Relative Humidity: 100%
Pressure (altimeter): 30.56 in. Hg (1035 hPa)
ob: EPWR 012300Z 13003KT 0100 R29/0450U FZFG NSC M01/M01 Q1035
cycle: 23

Station Type Date Time Source
EPWR TAF 2021/03/01 21:33 UTC NOAA

TAF EPWR 012030Z 0121/0221 VRB02KT 5000 BR NSC
BECMG 0121/0123 0800 FG
TEMPO 0123/0207 0300 FZFG OVC001
BECMG 0207/0209 4000 BR
BECMG 0209/0211 CAVOK
BECMG 0219/0221 3000 BR

Example: see airport list